Latest Weather Observations for Gold Coast Seaway

IDQ60801

Issued at 10:05 am EST Saturday 25 October 2014 (issued every 30 minutes, with the page automatically refreshed every 10 minutes)

About weather observations | Map of weather stations | Latest weather observations for QLD | Other Formats
Station Details ID: 040764 Name: GOLD COAST SEAWAY Lat: -27.94 Lon: 153.43 Height: 2.98 m
Data from the previous 72 hours. | See also: Recent months at Gold Coast Seaway
Date/Time
EST
Temp
°C
App
Temp
°C
Dew
Point
Rel
Hum
%
Delta-T
°C
Wind Press
QNH
hPa
Press
MSL
hPa
Rain
since 9 am
mm
Dir
 
Spd
km/h
Gust
km/h
Spd
kts
Gust
kts
25/10:00am 25.8 21.2 14.6 50 6.7 N 32 37 17 20 1019.4 1019.4 0.0
25/09:30am 25.1 21.8 13.9 49 6.6 NNW 24 32 13 17 1019.8 1019.8 0.0
25/09:00am 23.7 19.9 13.6 53 5.9 NNW 26 35 14 19 1020.2 1020.2 0.0
25/08:30am 23.3 19.2 13.8 55 5.5 NNW 28 35 15 19 1020.4 1020.4 0.0
25/08:00am 22.7 18.6 13.7 56 5.2 NNW 28 39 15 21 1020.4 1020.4 0.0
25/07:30am 22.0 18.3 13.9 60 4.7 NNW 26 35 14 19 1020.5 1020.5 0.0
25/07:00am 21.5 19.2 14.2 63 4.2 NNW 19 30 10 16 1020.3 1020.3 0.0
25/06:30am 20.3 18.3 14.0 67 3.6 NW 17 20 9 11 1020.5 1020.5 0.0
25/06:00am 19.1 18.4 14.4 74 2.7 NNW 11 15 6 8 1020.4 1020.4 0.0
25/05:30am 18.7 18.0 14.4 76 2.5 NNW 11 15 6 8 1019.8 1019.8 0.0
25/05:00am 18.8 17.4 14.5 76 2.5 NNW 15 19 8 10 1019.4 1019.4 0.0
25/04:30am 18.5 17.3 14.0 75 2.6 N 13 15 7 8 1019.2 1019.2 0.0
25/04:00am 19.0 18.0 14.5 75 2.6 NNW 13 17 7 9 1019.0 1019.0 0.0
25/03:30am 19.0 18.4 14.7 76 2.5 NNW 11 15 6 8 1018.9 1018.9 0.0
25/03:00am 19.2 18.7 14.9 76 2.5 NNW 11 13 6 7 1019.0 1019.0 0.0
25/02:30am 18.8 18.7 14.9 78 2.3 WNW 9 11 5 6 1018.9 1018.9 0.0
25/02:00am 18.5 17.9 14.6 78 2.3 NW 11 13 6 7 1018.9 1018.9 0.0
25/01:30am 18.5 17.9 14.6 78 2.3 WNW 11 13 6 7 1019.2 1019.2 0.0
25/01:00am 19.1 18.6 15.0 77 2.4 WNW 11 15 6 8 1019.6 1019.6 0.0
25/12:30am 18.9 18.4 14.8 77 2.4 N 11 15 6 8 1019.7 1019.7 0.0
25/12:00am 19.5 19.4 15.0 75 2.6 NW 9 11 5 6 1020.8 1020.8 0.0
 
Date/Time
EST
Temp
°C
App
Temp
°C
Dew
Point
Rel
Hum
%
Delta-T
°C
Wind Press
QNH
hPa
Press
MSL
hPa
Rain
since 9 am
mm
Dir
 
Spd
km/h
Gust
km/h
Spd
kts
Gust
kts
24/11:30pm 19.7 19.1 14.7 73 2.9 NW 11 13 6 7 1021.5 1021.5 0.0
24/11:00pm 19.8 19.2 14.6 72 3.0 NNW 11 15 6 8 1021.7 1021.7 0.0
24/10:30pm 19.8 18.7 14.2 70 3.2 NNW 13 17 7 9 1021.9 1021.9 0.0
24/10:00pm 20.2 18.7 14.3 69 3.4 N 15 19 8 10 1022.1 1022.1 0.0
24/09:30pm 20.3 18.9 14.4 69 3.4 NNW 15 20 8 11 1022.3 1022.3 0.0
24/09:00pm 20.5 18.7 14.4 68 3.5 N 17 22 9 12 1022.3 1022.3 0.0
24/08:30pm 20.6 19.2 14.5 68 3.6 N 15 20 8 11 1022.1 1022.1 0.0
24/08:00pm 20.7 19.7 14.6 68 3.6 N 13 19 7 10 1021.9 1021.9 0.0
24/07:30pm 21.3 18.2 15.6 70 3.4 NNE 26 33 14 18 1021.5 1021.5 0.0
24/07:00pm 21.4 18.3 15.5 69 3.5 NNE 26 30 14 16 1021.4 1021.4 0.0
24/06:30pm 21.5 18.4 15.6 69 3.5 NNE 26 30 14 16 1021.1 1021.1 0.0
24/06:00pm 21.5 18.4 15.6 69 3.5 NNE 26 33 14 18 1020.8 1020.8 0.0
24/05:30pm 21.9 18.8 15.7 68 3.7 NNE 26 32 14 17 1020.3 1020.3 0.0
24/05:00pm 22.5 19.1 15.8 66 4.0 NNE 28 33 15 18 1020.0 1020.0 0.0
24/04:30pm 22.9 19.1 14.7 60 4.8 NNE 28 35 15 19 1019.8 1019.8 0.0
24/04:00pm 23.3 19.3 15.1 60 4.9 NE 30 33 16 18 1019.6 1019.6 0.0
24/03:30pm 23.7 19.9 14.7 57 5.3 NE 28 33 15 18 1019.7 1019.7 0.0
24/03:00pm 24.1 19.8 14.5 55 5.7 NNE 30 33 16 18 1019.8 1019.8 0.0
24/02:30pm 24.8 20.8 15.1 54 5.8 NE 30 33 16 18 1020.0 1020.0 0.0
24/02:00pm 24.8 20.8 15.1 54 5.8 NE 30 33 16 18 1020.1 1020.1 0.0
24/01:30pm 24.7 20.8 15.6 57 5.5 NE 30 35 16 19 1020.4 1020.4 0.0
24/01:00pm 24.9 21.0 15.5 56 5.7 NE 30 35 16 19 1020.6 1020.6 0.0
24/12:30pm 24.9 20.5 15.2 54 5.8 NE 32 35 17 19 1020.7 1020.7 0.0
24/12:00pm 25.2 21.6 16.3 57 5.4 NE 30 33 16 18 1021.0 1021.0 0.0
24/11:30am 25.0 21.3 15.9 57 5.5 NE 30 32 16 17 1021.3 1021.3 0.0
24/11:00am 24.8 21.6 15.4 56 5.7 NE 26 30 14 16 1021.7 1021.7 0.0
24/10:30am 24.9 22.2 15.5 56 5.7 NE 24 28 13 15 1022.0 1022.0 0.0
24/10:00am 25.1 23.0 15.1 53 6.0 NE 20 24 11 13 1022.3 1022.3 0.0
24/09:30am 24.8 22.9 15.1 54 5.8 NE 19 24 10 13 1022.5 1022.5 0.0
24/09:00am 24.9 23.5 14.4 52 6.2 NNE 15 19 8 10 1022.6 1022.6 0.0
24/08:30am 24.3 23.5 15.0 56 5.6 NNE 13 17 7 9 1022.5 1022.5 0.0
24/08:00am 22.6 21.9 14.4 60 4.8 NNW 11 15 6 8 1022.6 1022.6 0.0
24/07:30am 21.4 21.0 14.1 63 4.2 NW 9 11 5 6 1022.7 1022.7 0.0
24/07:00am 20.3 20.0 14.4 69 3.4 WNW 9 11 5 6 1022.4 1022.4 0.0
24/06:30am 19.1 18.4 14.4 74 2.7 WNW 11 11 6 6 1022.3 1022.3 0.0
24/06:00am 18.7 18.1 14.6 77 2.4 NW 11 13 6 7 1022.1 1022.1 0.0
24/05:30am 18.0 17.7 14.3 79 2.1 WNW 9 11 5 6 1021.8 1021.8 0.0
24/05:00am 17.9 16.7 14.0 78 2.2 W 13 15 7 8 1021.4 1021.4 0.0
24/04:30am 17.7 16.8 13.8 78 2.2 WNW 11 13 6 7 1021.1 1021.1 0.0
24/04:00am 17.8 17.3 13.9 78 2.2 WNW 9 11 5 6 1020.9 1020.9 0.0
24/03:30am 17.6 17.1 13.7 78 2.2 WNW 9 11 5 6 1020.9 1020.9 0.0
24/03:00am 17.9 16.6 13.8 77 2.3 W 13 15 7 8 1020.8 1020.8 0.0
24/02:30am 18.1 16.9 14.0 77 2.3 WNW 13 13 7 7 1020.6 1020.6 0.0
24/02:00am 18.9 18.2 14.4 75 2.6 NW 11 15 6 8 1020.6 1020.6 0.0
24/01:30am 19.0 17.7 13.8 72 3.0 N 13 17 7 9 1020.7 1020.7 0.0
24/01:00am 19.1 17.8 13.7 71 3.1 N 13 15 7 8 1020.9 1020.9 0.0
24/12:30am 19.1 17.7 13.5 70 3.2 N 13 17 7 9 1021.2 1021.2 0.0
24/12:00am 19.0 17.9 13.2 69 3.3 N 11 17 6 9 1021.5 1021.5 0.0
 
Date/Time
EST
Temp
°C
App
Temp
°C
Dew
Point
Rel
Hum
%
Delta-T
°C
Wind Press
QNH
hPa
Press
MSL
hPa
Rain
since 9 am
mm
Dir
 
Spd
km/h
Gust
km/h
Spd
kts
Gust
kts
23/11:30pm 19.2 18.2 13.4 69 3.3 N 11 15 6 8 1021.7 1021.7 0.0
23/11:00pm 19.4 18.5 13.8 70 3.2 NNW 11 15 6 8 1021.6 1021.6 0.0
23/10:30pm 19.8 18.9 13.7 68 3.5 NNW 11 13 6 7 1021.7 1021.7 0.0
23/10:00pm 20.2 19.0 13.9 67 3.6 NNW 13 17 7 9 1021.7 1021.7 0.0
23/09:30pm 20.2 19.2 13.4 65 3.9 N 11 15 6 8 1021.5 1021.5 0.0
23/09:00pm 20.2 19.3 13.6 66 3.8 NNW 11 15 6 8 1021.3 1021.3 0.0
23/08:30pm 20.6 19.7 13.6 64 4.0 NNW 11 13 6 7 1021.3 1021.3 0.0
23/08:00pm 20.9 18.7 13.4 62 4.3 N 17 20 9 11 1021.2 1021.2 0.0
23/07:30pm 21.0 18.2 13.2 61 4.5 NNE 20 24 11 13 1020.7 1020.7 0.0
23/07:00pm 21.0 17.8 13.2 61 4.4 NNE 22 26 12 14 1020.2 1020.2 0.0
23/06:30pm 21.0 17.7 12.9 60 4.6 NNE 22 26 12 14 1019.9 1019.9 0.0
23/06:00pm 21.1 17.6 13.5 62 4.4 NNE 24 28 13 15 1019.5 1019.5 0.0
23/05:30pm 21.3 17.5 13.5 61 4.5 NNE 26 30 14 16 1019.0 1019.0 0.0
23/05:00pm 21.6 17.8 13.5 60 4.7 NNE 26 30 14 16 1018.5 1018.5 0.0
23/04:30pm 21.9 18.1 13.5 59 4.8 NNE 26 30 14 16 1018.3 1018.3 0.0
23/04:00pm 22.7 18.3 12.9 54 5.6 NNE 28 33 15 18 1017.9 1017.9 0.0
23/03:30pm 23.0 18.3 13.2 54 5.7 NNE 30 33 16 18 1017.6 1017.6 0.0
23/03:00pm 23.6 18.8 12.9 51 6.1 NNE 30 35 16 19 1017.6 1017.6 0.0
23/02:30pm 24.1 19.2 13.6 52 6.1 NNE 32 35 17 19 1017.8 1017.8 0.0
23/02:00pm 23.9 18.8 13.2 51 6.2 NNE 32 35 17 19 1018.0 1018.0 0.0
23/01:30pm 24.3 19.6 13.2 50 6.4 NNE 30 33 16 18 1018.6 1018.6 0.0
23/01:00pm 24.2 19.6 13.4 51 6.3 NE 30 33 16 18 1018.9 1018.9 0.0
23/12:30pm 24.1 19.9 13.6 52 6.1 NE 28 32 15 17 1019.4 1019.4 0.0
23/12:00pm 23.7 19.4 13.3 52 6.0 NE 28 32 15 17 1019.8 1019.8 0.0
23/11:30am 23.7 19.7 13.0 51 6.2 NE 26 30 14 16 1020.3 1020.3 0.0
23/11:00am 23.5 20.2 12.8 51 6.1 NE 22 26 12 14 1020.8 1020.8 0.0
23/10:30am 23.7 20.5 13.0 51 6.2 NE 22 26 12 14 1021.2 1021.2 0.0
23/10:00am 23.6 21.0 12.0 48 6.6 NE 17 20 9 11 1021.7 1021.7 0.0
23/09:30am 23.7 21.0 11.7 47 6.8 NNE 17 20 9 11 1022.0 1022.0 0.0
23/09:00am 23.1 21.7 12.1 50 6.2 NE 11 15 6 8 1022.3 1022.3 0.0
23/08:30am 21.5 19.7 10.9 51 5.8 NNW 11 15 6 8 1022.5 1022.5 0.0
23/08:00am 20.6 19.2 11.0 54 5.2 NW 9 11 5 6 1022.6 1022.6 0.0
23/07:30am 20.1 19.3 11.8 59 4.6 W 7 11 4 6 1022.6 1022.6 0.0
23/07:00am 19.4 18.9 12.7 65 3.8 W 7 11 4 6 1022.4 1022.4 0.0
23/06:30am 18.0 17.1 12.7 71 3.0 W 9 11 5 6 1022.3 1022.3 0.0
23/06:00am 16.6 15.7 12.6 77 2.2 W 9 11 5 6 1022.0 1022.0 0.0
23/05:30am 15.8 14.8 12.2 79 2.0 WSW 9 9 5 5 1021.8 1021.8 0.0
23/05:00am 15.4 14.3 12.0 80 1.8 WSW 9 13 5 7 1021.6 1021.6 0.0
23/04:30am 15.8 14.4 12.2 79 2.0 WSW 11 13 6 7 1021.6 1021.6 0.0
23/04:00am 16.1 15.1 12.3 78 2.1 WSW 9 11 5 6 1021.5 1021.5 0.0
23/03:30am 16.2 15.2 12.2 77 2.2 SW 9 11 5 6 1021.4 1021.4 0.0
23/03:00am 16.3 15.7 12.3 77 2.2 W 7 11 4 6 1021.5 1021.5 0.0
23/02:30am 16.2 14.8 12.2 77 2.2 SW 11 15 6 8 1021.5 1021.5 0.0
23/02:00am 16.5 15.1 12.1 75 2.4 SW 11 13 6 7 1021.6 1021.6 0.0
23/01:30am 17.0 15.9 12.1 73 2.7 SW 9 13 5 7 1021.9 1021.9 0.0
23/01:00am 17.5 17.3 11.8 69 3.1 SSW 4 11 2 6 1022.1 1022.1 0.0
23/12:30am 19.0 17.3 12.3 65 3.7 E 13 19 7 10 1022.3 1022.3 0.0
23/12:00am 19.1 17.4 12.6 66 3.6 E 13 19 7 10 1022.5 1022.5 0.0
 
Date/Time
EST
Temp
°C
App
Temp
°C
Dew
Point
Rel
Hum
%
Delta-T
°C
Wind Press
QNH
hPa
Press
MSL
hPa
Rain
since 9 am
mm
Dir
 
Spd
km/h
Gust
km/h
Spd
kts
Gust
kts
22/11:30pm 19.2 17.1 12.5 65 3.7 E 15 19 8 10 1022.9 1022.9 0.0
22/11:00pm 19.3 16.9 12.8 66 3.6 ESE 17 22 9 12 1023.2 1023.2 0.0
22/10:30pm 19.3 17.1 13.2 68 3.5 E 17 22 9 12 1023.3 1023.3 0.0
22/10:00pm 19.5 17.0 13.4 68 3.5 E 19 26 10 14 1023.2 1023.2 0.0
22/09:30pm 19.5 16.5 12.5 64 3.9 ESE 20 26 11 14 1023.3 1023.3 0.0
22/09:00pm 19.6 16.8 13.1 66 3.7 SE 20 26 11 14 1023.4 1023.4 0.0
22/08:30pm 19.5 16.0 12.3 63 4.0 SE 22 30 12 16 1023.4 1023.4 0.0
22/08:00pm 19.6 15.7 13.3 67 3.6 SE 26 32 14 17 1023.3 1023.3 0.0
22/07:30pm 19.5 15.0 12.5 64 3.9 SE 28 33 15 18 1023.2 1023.2 0.0
22/07:00pm 19.7 15.3 12.9 65 3.8 SE 28 32 15 17 1023.2 1023.2 0.0
22/06:30pm 19.6 14.7 12.4 63 4.0 SE 30 35 16 19 1023.0 1023.0 0.0
22/06:00pm 19.9 14.7 12.9 64 3.9 SE 32 35 17 19 1022.9 1022.9 0.0
22/05:30pm 20.3 15.7 12.3 60 4.5 SE 28 30 15 16 1022.8 1022.8 0.0
22/05:00pm 21.6 17.5 13.8 61 4.5 SE 28 33 15 18 1022.8 1022.8 0.0
22/04:30pm 21.6 17.2 13.0 58 4.9 SE 28 33 15 18 1022.7 1022.7 0.0
22/04:00pm 22.3 17.7 12.3 53 5.6 SE 28 33 15 18 1022.7 1022.7 0.0
22/03:30pm 23.4 19.1 12.1 49 6.4 SE 26 33 14 18 1022.7 1022.7 0.0
22/03:00pm 23.8 19.2 12.4 48 6.5 SE 28 33 15 18 1022.7 1022.7 0.0
22/02:30pm 23.1 18.3 11.8 49 6.4 SE 28 35 15 19 1022.8 1022.8 0.0
22/02:00pm 22.6 17.4 11.7 50 6.1 SE 30 37 16 20 1023.2 1023.2 0.0
22/01:30pm 23.4 18.0 12.1 49 6.4 SE 32 37 17 20 1023.6 1023.6 0.0
22/01:00pm 23.6 18.7 12.6 50 6.3 SE 30 37 16 20 1023.8 1023.8 0.0
22/12:30pm 24.2 19.4 14.0 53 6.0 SSE 32 37 17 20 1024.1 1024.1 0.0
22/12:00pm 24.0 18.9 13.2 50 6.2 SSE 32 37 17 20 1024.4 1024.4 0.0
22/11:30am 24.1 19.0 13.0 50 6.4 SSE 32 41 17 22 1024.8 1024.8 0.0
22/11:00am 24.0 18.4 12.0 47 6.8 SSE 33 39 18 21 1025.0 1025.0 0.0
22/10:30am 22.1 17.6 12.6 55 5.4 SSE 28 35 15 19 1025.3 1025.3 0.0

Other Formats:

Comma delimited format used in spreadsheet applications
http://www.bom.gov.au/fwo/IDQ60801/IDQ60801.94580.axf

JavaScript Object Notation format (JSON) in row-major order
http://www.bom.gov.au/fwo/IDQ60801/IDQ60801.94580.json